Fukue Airport Goto JP
ICAO: RJFE
IATA:
Category: Medium
Scheduled Services:

Elevation: 273 ft
TransAlt. 0 ft.

Airport Communications:
RDO:118.35

RJFE Zoom In..

If you have problems with the map follow the link
https://www.worldairports.se/pages/airport.php?
ICAO=RJFE

Runways:

(A) RW 03 length 6562 ft width 148 ft
LOC 109.70 / hdg 32

(B) RW 21 length 6562 ft width 148 ft
LOC 109.70 / hdg 212

Location; RJFE
Day. 06 / Time. 02.42 Zulu
* Altimeter: 29.69
* Temperature: 24° c. 75.2°f.
* Wind from: 230° Speed 22 kn with Gusts up to 38 kn.
Dewpoint: 22° c.
Visibility: 8000 m.
Clouds: Few 1000 ft.
Clouds: Broken 1500 ft.
Clouds: Broken 2000 ft.
Conditions: Light Rain Showers.

RJFE 060242Z 23022G38KT 190V250 8000 -SHRA FEW010 BKN015 BKN020 24/22 Q1005 RMK 1CU010 5CU015 6CU020 A2969


Wind From 230°
Speed 22 kn.

 
 
jpsmedia.com for Web Design worldairports.se 2018   terms of use